Salishan — WUT4384 — position and weather

sailwx.info

Track history (hours):
 
Tides and Currents Weather Stations Pressure Air Temp Water Temp Dewpoint Dewpoint Depression Visibility Wind Speed Wind Dir Waves Ship Positions

Salishan

Owner: Sause Bros. Inc., COOS BAY, OR. More information available from US FCC via Universal Licensing System and Coast Guard Vessel Documentation Center.

Last reported at 2015-Mar-04 07:33 UTC. Time now 2015-Mar-04 08:34 UTC.
Position N 38°03' W 122°16'.

MMSI: 367007912.

Date/timePositionNaut miles runAvg speedWind from/ knotsBaromVisibWave heightAir tempDewpointWater temp
2015-Mar-04 07:33N 38°03' W 122°16'0 0.0
2015-Mar-04 06:33N 38°03' W 122°16'0 0.0
2015-Mar-04 05:33N 38°03' W 122°16'0 0.0
2015-Mar-04 04:33N 38°03' W 122°16'0 0.0
2015-Mar-04 03:33N 38°03' W 122°16'0 0.0
2015-Mar-04 02:33N 38°03' W 122°16'0 0.0
2015-Mar-04 01:33N 38°03' W 122°16'0 0.0
2015-Mar-04 00:32N 38°03' W 122°16'0 0.0
2015-Mar-03 23:26N 38°03' W 122°16'0 0.0
2015-Mar-03 22:32N 38°03' W 122°16'0 0.0
2015-Mar-03 21:32N 38°03' W 122°16'0 0.0
2015-Mar-03 20:32N 38°03' W 122°16'0 0.0
2015-Mar-03 19:32N 38°03' W 122°16'0 0.0
2015-Mar-03 18:32N 38°03' W 122°16'0 0.0
2015-Mar-03 17:32N 38°03' W 122°16'0 0.0
2015-Mar-03 16:32N 38°03' W 122°16'1 0.8
2015-Mar-03 15:33N 38°03' W 122°17'6 6.6
2015-Mar-03 14:34N 38°01' W 122°24'6 6.3
2015-Mar-03 13:33N 37°54' W 122°26'0 0.2
2015-Mar-03 12:33N 37°54' W 122°26'0 0.1
2015-Mar-03 11:33N 37°54' W 122°26'0 0.0
2015-Mar-03 10:33N 37°54' W 122°26'0 0.0
2015-Mar-03 09:33N 37°54' W 122°26'0 0.1
2015-Mar-03 08:33N 37°54' W 122°26'0 0.0
2015-Mar-03 07:33N 37°54' W 122°26'0 0.0
2015-Mar-03 06:34N 37°54' W 122°26'0 0.0
2015-Mar-03 05:33N 37°54' W 122°26'0 0.0
2015-Mar-03 04:30N 37°54' W 122°26'0 0.0
2015-Mar-03 03:34N 37°54' W 122°26'0 0.1
2015-Mar-03 02:33N 37°54' W 122°26'0 0.0
2015-Mar-03 01:33N 37°54' W 122°26'0 0.0
2015-Mar-03 00:33N 37°54' W 122°26'0 0.0
2015-Mar-02 23:33N 37°54' W 122°26'0 0.0
2015-Mar-02 22:33N 37°54' W 122°26'0 0.0
2015-Mar-02 21:33N 37°54' W 122°26'0 0.0
2015-Mar-02 20:33N 37°54' W 122°26'0 0.1
2015-Mar-02 19:33N 37°54' W 122°26'0 0.0
2015-Mar-02 18:33N 37°54' W 122°26'0 0.0
2015-Mar-02 17:33N 37°54' W 122°26'0 0.0
2015-Mar-02 16:33N 37°54' W 122°26'0 0.0
2015-Mar-02 15:33N 37°54' W 122°26'0 0.0
2015-Mar-02 14:33N 37°54' W 122°26'0 0.0
2015-Mar-02 13:33N 37°54' W 122°26'0 0.0
2015-Mar-02 12:33N 37°54' W 122°26'0 0.0
2015-Mar-02 11:33N 37°54' W 122°26'0 0.0
2015-Mar-02 10:34N 37°54' W 122°26'0 0.0
2015-Mar-02 09:33N 37°54' W 122°26'0 0.1
2015-Mar-02 08:33N 37°54' W 122°26'0 0.0
2015-Mar-02 07:34N 37°54' W 122°26'0 0.0
2015-Mar-02 06:33N 37°54' W 122°26'0 0.0
2015-Mar-02 05:33N 37°54' W 122°26'0 0.0
2015-Mar-02 04:34N 37°54' W 122°26'0 0.0
2015-Mar-02 03:33N 37°54' W 122°26'0 0.1
2015-Mar-02 02:33N 37°54' W 122°26'0 0.1
2015-Mar-02 01:33N 37°54' W 122°26'0 0.0
2015-Mar-02 00:33N 37°54' W 122°26'0 0.0
2015-Mar-01 23:33N 37°54' W 122°26'0 0.0
2015-Mar-01 22:33N 37°54' W 122°26'0 0.0
2015-Mar-01 21:33N 37°54' W 122°26'0 0.0
2015-Mar-01 20:33N 37°54' W 122°26'0 0.0
2015-Mar-01 19:33N 37°54' W 122°26'0 0.0
2015-Mar-01 18:33N 37°54' W 122°26'0 0.0
2015-Mar-01 17:33N 37°54' W 122°26'0 0.0
2015-Mar-01 16:33N 37°54' W 122°26'0 0.0
2015-Mar-01 15:34N 37°54' W 122°26'0 0.0
2015-Mar-01 14:32N 37°54' W 122°26'0 0.0
2015-Mar-01 13:33N 37°54' W 122°26'1 0.6
2015-Mar-01 12:33N 37°54' W 122°26'3 3.3
2015-Mar-01 11:34N 37°51' W 122°26'5 5.0
2015-Mar-01 10:33N 37°48' W 122°32'6 5.5
2015-Mar-01 09:33N 37°46' W 122°38'7 6.2
2015-Mar-01 08:27N 37°42' W 122°45'5 5.8
2015-Mar-01 07:33N 37°39' W 122°50'6 5.8
2015-Mar-01 06:34N 37°35' W 122°56'7 6.9
2015-Mar-01 05:33N 37°32' W 123°04'7 6.9
2015-Mar-01 04:29N 37°30' W 123°13'7 7.0
2015-Mar-01 03:32N 37°28' W 123°21'27 6.1
2015-Feb-28 23:09N 37°49' W 123°42'4 7.0
2015-Feb-28 22:33N 37°52' W 123°44'7 7.4
2015-Feb-28 21:34N 37°59' W 123°48'8 7.6
2015-Feb-28 20:34N 38°06' W 123°53'8 7.6
2015-Feb-28 19:33N 38°13' W 123°57'8 8.1
2015-Feb-28 18:33N 38°20' W 124°01'  
2015-Feb-25 06:25N 48°22' W 125°01'6 7.1
2015-Feb-25 05:34N 48°26' W 124°54'7 7.2
2015-Feb-25 04:33N 48°26' W 124°43'7 7.1
2015-Feb-25 03:34N 48°23' W 124°33'28 6.3
2015-Feb-24 23:04N 48°12' W 123°54'4 7.2
2015-Feb-24 22:34N 48°12' W 123°49'9 8.0
2015-Feb-24 21:29N 48°12' W 123°36'9 9.5
2015-Feb-24 20:33N 48°12' W 123°23'9 9.1
2015-Feb-24 19:32N 48°13' W 123°09'8 8.3
2015-Feb-24 18:33N 48°12' W 122°57'8 7.5
2015-Feb-24 17:32N 48°11' W 122°46'9 7.1
2015-Feb-24 16:16N 48°03' W 122°38'4 6.1
2015-Feb-24 15:32N 47°59' W 122°35'6 6.5
2015-Feb-24 14:33N 47°55' W 122°29'3 6.5
2015-Feb-24 14:10N 47°52' W 122°28'4 7.0
2015-Feb-24 13:34N 47°48' W 122°26'0 6.6
2015-Feb-24 13:30N 47°48' W 122°26'6 6.7
2015-Feb-24 12:34N 47°41' W 122°27'6 6.8
2015-Feb-24 11:44N 47°36' W 122°26'1 6.8
2015-Feb-24 11:33N 47°35' W 122°26'7 6.7
2015-Feb-24 10:33N 47°28' W 122°24'3 7.1
2015-Feb-24 10:08N 47°25' W 122°22'4 5.9
2015-Feb-24 09:30N 47°22' W 122°22'5 5.5
2015-Feb-24 08:33N 47°18' W 122°27'3 2.5
2015-Feb-24 07:33N 47°16' W 122°24'0 0.0
2015-Feb-24 06:28N 47°16' W 122°24'0 0.0
2015-Feb-24 05:31N 47°16' W 122°24'0 0.0
2015-Feb-24 04:26N 47°16' W 122°24'0 0.0
2015-Feb-24 03:18N 47°16' W 122°24'0 0.0
2015-Feb-24 01:27N 47°16' W 122°24'0 0.0
2015-Feb-24 00:34N 47°16' W 122°24'0 0.0
2015-Feb-23 23:33N 47°16' W 122°24'0 0.0
2015-Feb-23 22:33N 47°16' W 122°24'0 0.0
2015-Feb-23 21:16N 47°16' W 122°24'0 0.0
2015-Feb-23 20:33N 47°16' W 122°24'0 0.0
2015-Feb-23 19:11N 47°16' W 122°24'0 0.0
2015-Feb-23 18:32N 47°16' W 122°24'0 0.0
2015-Feb-23 17:31N 47°16' W 122°24'0 0.0
2015-Feb-23 16:10N 47°16' W 122°24'0 0.0
2015-Feb-23 13:30N 47°16' W 122°24'0 0.0
2015-Feb-23 12:34N 47°16' W 122°24'1 0.8
2015-Feb-23 11:34N 47°16' W 122°25'0 0.0
2015-Feb-23 10:33N 47°16' W 122°25'0 0.0
2015-Feb-23 10:02N 47°16' W 122°25'0 0.0
2015-Feb-23 09:33N 47°16' W 122°25'0 0.0
2015-Feb-23 08:33N 47°16' W 122°25'0 0.0
2015-Feb-23 07:34N 47°16' W 122°25'0 0.0
2015-Feb-23 06:34N 47°16' W 122°25'0 0.0
2015-Feb-23 05:34N 47°16' W 122°25'0 0.0
2015-Feb-23 04:33N 47°16' W 122°25'0 0.0
2015-Feb-23 03:34N 47°16' W 122°25'0 0.0
2015-Feb-23 02:33N 47°16' W 122°25'0 0.0
2015-Feb-23 01:34N 47°16' W 122°25'0 0.0
2015-Feb-23 00:33N 47°16' W 122°25'0 0.0
2015-Feb-23 00:20N 47°16' W 122°25'0 0.0
2015-Feb-22 23:34N 47°16' W 122°25'0 0.0
2015-Feb-22 22:42N 47°16' W 122°25'0 0.0
2015-Feb-22 22:33N 47°16' W 122°25'0 0.0
2015-Feb-22 21:42N 47°16' W 122°25'0 0.0
2015-Feb-22 21:34N 47°16' W 122°25'0 0.0
2015-Feb-22 21:01N 47°16' W 122°25'0 0.0
2015-Feb-22 20:33N 47°16' W 122°25'0 0.0
2015-Feb-22 19:33N 47°16' W 122°25'0 0.0
2015-Feb-22 18:34N 47°16' W 122°25'0 0.0
2015-Feb-22 17:33N 47°16' W 122°25'0 0.0
2015-Feb-22 16:34N 47°16' W 122°25'0 0.0
2015-Feb-22 15:33N 47°16' W 122°25'0 0.0
2015-Feb-22 14:33N 47°16' W 122°25'0 0.0
2015-Feb-22 13:34N 47°16' W 122°25'0 0.0
2015-Feb-22 12:34N 47°16' W 122°25'0 0.0
2015-Feb-22 12:00N 47°16' W 122°25'0 0.0
2015-Feb-22 11:33N 47°16' W 122°25'0 0.0
2015-Feb-22 10:34N 47°16' W 122°25'0 0.0
2015-Feb-22 09:34N 47°16' W 122°25'0 0.0
2015-Feb-22 08:33N 47°16' W 122°25'0 0.0
2015-Feb-22 07:34N 47°16' W 122°25'  
Track history (hours):
 
Tides and Currents Weather Stations Pressure Air Temp Water Temp Dewpoint Dewpoint Depression Visibility Wind Speed Wind Dir Waves Ship Positions

Salishan

Owner: Sause Bros. Inc., COOS BAY, OR. More information available from US FCC via Universal Licensing System and Coast Guard Vessel Documentation Center.

Last reported at 2015-Mar-04 07:33 UTC. Time now 2015-Mar-04 08:34 UTC.
Position N 38°03' W 122°16'.

MMSI: 367007912.

Date/timePositionNaut miles runAvg speedWind from/ knotsBaromVisibWave heightAir tempDewpointWater temp
2015-Mar-04 07:33N 38°03' W 122°16'0 0.0
2015-Mar-04 06:33N 38°03' W 122°16'0 0.0
2015-Mar-04 05:33N 38°03' W 122°16'0 0.0
2015-Mar-04 04:33N 38°03' W 122°16'0 0.0
2015-Mar-04 03:33N 38°03' W 122°16'0 0.0
2015-Mar-04 02:33N 38°03' W 122°16'0 0.0
2015-Mar-04 01:33N 38°03' W 122°16'0 0.0
2015-Mar-04 00:32N 38°03' W 122°16'0 0.0
2015-Mar-03 23:26N 38°03' W 122°16'0 0.0
2015-Mar-03 22:32N 38°03' W 122°16'0 0.0
2015-Mar-03 21:32N 38°03' W 122°16'0 0.0
2015-Mar-03 20:32N 38°03' W 122°16'0 0.0
2015-Mar-03 19:32N 38°03' W 122°16'0 0.0
2015-Mar-03 18:32N 38°03' W 122°16'0 0.0
2015-Mar-03 17:32N 38°03' W 122°16'0 0.0
2015-Mar-03 16:32N 38°03' W 122°16'1 0.8
2015-Mar-03 15:33N 38°03' W 122°17'6 6.6
2015-Mar-03 14:34N 38°01' W 122°24'6 6.3
2015-Mar-03 13:33N 37°54' W 122°26'0 0.2
2015-Mar-03 12:33N 37°54' W 122°26'0 0.1
2015-Mar-03 11:33N 37°54' W 122°26'0 0.0
2015-Mar-03 10:33N 37°54' W 122°26'0 0.0
2015-Mar-03 09:33N 37°54' W 122°26'0 0.1
2015-Mar-03 08:33N 37°54' W 122°26'0 0.0
2015-Mar-03 07:33N 37°54' W 122°26'0 0.0
2015-Mar-03 06:34N 37°54' W 122°26'0 0.0
2015-Mar-03 05:33N 37°54' W 122°26'0 0.0
2015-Mar-03 04:30N 37°54' W 122°26'0 0.0
2015-Mar-03 03:34N 37°54' W 122°26'0 0.1
2015-Mar-03 02:33N 37°54' W 122°26'0 0.0
2015-Mar-03 01:33N 37°54' W 122°26'0 0.0
2015-Mar-03 00:33N 37°54' W 122°26'0 0.0
2015-Mar-02 23:33N 37°54' W 122°26'0 0.0
2015-Mar-02 22:33N 37°54' W 122°26'0 0.0
2015-Mar-02 21:33N 37°54' W 122°26'0 0.0
2015-Mar-02 20:33N 37°54' W 122°26'0 0.1
2015-Mar-02 19:33N 37°54' W 122°26'0 0.0
2015-Mar-02 18:33N 37°54' W 122°26'0 0.0
2015-Mar-02 17:33N 37°54' W 122°26'0 0.0
2015-Mar-02 16:33N 37°54' W 122°26'0 0.0
2015-Mar-02 15:33N 37°54' W 122°26'0 0.0
2015-Mar-02 14:33N 37°54' W 122°26'0 0.0
2015-Mar-02 13:33N 37°54' W 122°26'0 0.0
2015-Mar-02 12:33N 37°54' W 122°26'0 0.0
2015-Mar-02 11:33N 37°54' W 122°26'0 0.0
2015-Mar-02 10:34N 37°54' W 122°26'0 0.0
2015-Mar-02 09:33N 37°54' W 122°26'0 0.1
2015-Mar-02 08:33N 37°54' W 122°26'0 0.0
2015-Mar-02 07:34N 37°54' W 122°26'0 0.0
2015-Mar-02 06:33N 37°54' W 122°26'0 0.0
2015-Mar-02 05:33N 37°54' W 122°26'0 0.0
2015-Mar-02 04:34N 37°54' W 122°26'0 0.0
2015-Mar-02 03:33N 37°54' W 122°26'0 0.1
2015-Mar-02 02:33N 37°54' W 122°26'0 0.1
2015-Mar-02 01:33N 37°54' W 122°26'0 0.0
2015-Mar-02 00:33N 37°54' W 122°26'0 0.0
2015-Mar-01 23:33N 37°54' W 122°26'0 0.0
2015-Mar-01 22:33N 37°54' W 122°26'0 0.0
2015-Mar-01 21:33N 37°54' W 122°26'0 0.0
2015-Mar-01 20:33N 37°54' W 122°26'0 0.0
2015-Mar-01 19:33N 37°54' W 122°26'0 0.0
2015-Mar-01 18:33N 37°54' W 122°26'0 0.0
2015-Mar-01 17:33N 37°54' W 122°26'0 0.0
2015-Mar-01 16:33N 37°54' W 122°26'0 0.0
2015-Mar-01 15:34N 37°54' W 122°26'0 0.0
2015-Mar-01 14:32N 37°54' W 122°26'0 0.0
2015-Mar-01 13:33N 37°54' W 122°26'1 0.6
2015-Mar-01 12:33N 37°54' W 122°26'3 3.3
2015-Mar-01 11:34N 37°51' W 122°26'5 5.0
2015-Mar-01 10:33N 37°48' W 122°32'6 5.5
2015-Mar-01 09:33N 37°46' W 122°38'7 6.2
2015-Mar-01 08:27N 37°42' W 122°45'5 5.8
2015-Mar-01 07:33N 37°39' W 122°50'6 5.8
2015-Mar-01 06:34N 37°35' W 122°56'7 6.9
2015-Mar-01 05:33N 37°32' W 123°04'7 6.9
2015-Mar-01 04:29N 37°30' W 123°13'7 7.0
2015-Mar-01 03:32N 37°28' W 123°21'27 6.1
2015-Feb-28 23:09N 37°49' W 123°42'4 7.0
2015-Feb-28 22:33N 37°52' W 123°44'7 7.4
2015-Feb-28 21:34N 37°59' W 123°48'8 7.6
2015-Feb-28 20:34N 38°06' W 123°53'8 7.6
2015-Feb-28 19:33N 38°13' W 123°57'8 8.1
2015-Feb-28 18:33N 38°20' W 124°01'  
2015-Feb-25 06:25N 48°22' W 125°01'6 7.1
2015-Feb-25 05:34N 48°26' W 124°54'7 7.2
2015-Feb-25 04:33N 48°26' W 124°43'7 7.1
2015-Feb-25 03:34N 48°23' W 124°33'28 6.3
2015-Feb-24 23:04N 48°12' W 123°54'4 7.2
2015-Feb-24 22:34N 48°12' W 123°49'9 8.0
2015-Feb-24 21:29N 48°12' W 123°36'9 9.5
2015-Feb-24 20:33N 48°12' W 123°23'9 9.1
2015-Feb-24 19:32N 48°13' W 123°09'8 8.3
2015-Feb-24 18:33N 48°12' W 122°57'8 7.5
2015-Feb-24 17:32N 48°11' W 122°46'9 7.1
2015-Feb-24 16:16N 48°03' W 122°38'4 6.1
2015-Feb-24 15:32N 47°59' W 122°35'6 6.5
2015-Feb-24 14:33N 47°55' W 122°29'3 6.5
2015-Feb-24 14:10N 47°52' W 122°28'4 7.0
2015-Feb-24 13:34N 47°48' W 122°26'0 6.6
2015-Feb-24 13:30N 47°48' W 122°26'6 6.7
2015-Feb-24 12:34N 47°41' W 122°27'6 6.8
2015-Feb-24 11:44N 47°36' W 122°26'1 6.8
2015-Feb-24 11:33N 47°35' W 122°26'7 6.7
2015-Feb-24 10:33N 47°28' W 122°24'3 7.1
2015-Feb-24 10:08N 47°25' W 122°22'4 5.9
2015-Feb-24 09:30N 47°22' W 122°22'5 5.5
2015-Feb-24 08:33N 47°18' W 122°27'3 2.5
2015-Feb-24 07:33N 47°16' W 122°24'0 0.0
2015-Feb-24 06:28N 47°16' W 122°24'0 0.0
2015-Feb-24 05:31N 47°16' W 122°24'0 0.0
2015-Feb-24 04:26N 47°16' W 122°24'0 0.0
2015-Feb-24 03:18N 47°16' W 122°24'0 0.0
2015-Feb-24 01:27N 47°16' W 122°24'0 0.0
2015-Feb-24 00:34N 47°16' W 122°24'0 0.0
2015-Feb-23 23:33N 47°16' W 122°24'0 0.0
2015-Feb-23 22:33N 47°16' W 122°24'0 0.0
2015-Feb-23 21:16N 47°16' W 122°24'0 0.0
2015-Feb-23 20:33N 47°16' W 122°24'0 0.0
2015-Feb-23 19:11N 47°16' W 122°24'0 0.0
2015-Feb-23 18:32N 47°16' W 122°24'0 0.0
2015-Feb-23 17:31N 47°16' W 122°24'0 0.0
2015-Feb-23 16:10N 47°16' W 122°24'0 0.0
2015-Feb-23 13:30N 47°16' W 122°24'0 0.0
2015-Feb-23 12:34N 47°16' W 122°24'1 0.8
2015-Feb-23 11:34N 47°16' W 122°25'0 0.0
2015-Feb-23 10:33N 47°16' W 122°25'0 0.0
2015-Feb-23 10:02N 47°16' W 122°25'0 0.0
2015-Feb-23 09:33N 47°16' W 122°25'0 0.0
2015-Feb-23 08:33N 47°16' W 122°25'0 0.0
2015-Feb-23 07:34N 47°16' W 122°25'0 0.0
2015-Feb-23 06:34N 47°16' W 122°25'0 0.0
2015-Feb-23 05:34N 47°16' W 122°25'0 0.0
2015-Feb-23 04:33N 47°16' W 122°25'0 0.0
2015-Feb-23 03:34N 47°16' W 122°25'0 0.0
2015-Feb-23 02:33N 47°16' W 122°25'0 0.0
2015-Feb-23 01:34N 47°16' W 122°25'0 0.0
2015-Feb-23 00:33N 47°16' W 122°25'0 0.0
2015-Feb-23 00:20N 47°16' W 122°25'0 0.0
2015-Feb-22 23:34N 47°16' W 122°25'0 0.0
2015-Feb-22 22:42N 47°16' W 122°25'0 0.0
2015-Feb-22 22:33N 47°16' W 122°25'0 0.0
2015-Feb-22 21:42N 47°16' W 122°25'0 0.0
2015-Feb-22 21:34N 47°16' W 122°25'0 0.0
2015-Feb-22 21:01N 47°16' W 122°25'0 0.0
2015-Feb-22 20:33N 47°16' W 122°25'0 0.0
2015-Feb-22 19:33N 47°16' W 122°25'0 0.0
2015-Feb-22 18:34N 47°16' W 122°25'0 0.0
2015-Feb-22 17:33N 47°16' W 122°25'0 0.0
2015-Feb-22 16:34N 47°16' W 122°25'0 0.0
2015-Feb-22 15:33N 47°16' W 122°25'0 0.0
2015-Feb-22 14:33N 47°16' W 122°25'0 0.0
2015-Feb-22 13:34N 47°16' W 122°25'0 0.0
2015-Feb-22 12:34N 47°16' W 122°25'0 0.0
2015-Feb-22 12:00N 47°16' W 122°25'0 0.0
2015-Feb-22 11:33N 47°16' W 122°25'0 0.0
2015-Feb-22 10:34N 47°16' W 122°25'0 0.0
2015-Feb-22 09:34N 47°16' W 122°25'0 0.0
2015-Feb-22 08:33N 47°16' W 122°25'0 0.0
2015-Feb-22 07:34N 47°16' W 122°25'  

Dump ship's entire track history